createdAt,value
2018-01-20T00:00:07.750Z,6.10
2018-01-20T00:02:35.240Z,13.97
2018-01-20T00:05:04.465Z,8.60
2018-01-20T00:07:33.004Z,6.40
2018-01-20T00:10:12.467Z,5.83
2018-01-20T00:12:40.095Z,6.37
2018-01-20T00:15:07.641Z,10.60
2018-01-20T00:17:35.123Z,5.53
2018-01-20T00:20:02.612Z,8.00
2018-01-20T00:22:30.090Z,5.23
2018-01-20T00:25:04.050Z,4.90
2018-01-20T00:27:37.228Z,6.60
2018-01-20T00:30:04.686Z,5.00
2018-01-20T00:32:32.159Z,6.77
2018-01-20T00:34:59.644Z,6.23
2018-01-20T00:37:27.201Z,5.23
2018-01-20T00:39:54.667Z,5.60
2018-01-20T00:42:22.170Z,4.33
2018-01-20T00:44:49.637Z,4.77
2018-01-20T00:47:17.105Z,8.40
2018-01-20T00:49:44.743Z,5.37
2018-01-20T00:52:12.205Z,5.70
2018-01-20T00:54:39.673Z,4.93
2018-01-20T00:57:07.651Z,3.40
2018-01-20T00:59:35.110Z,4.70
2018-01-20T01:02:02.573Z,4.87
2018-01-20T01:04:30.299Z,4.30
2018-01-20T01:06:58.517Z,3.90
2018-01-20T01:09:26.014Z,4.63
2018-01-20T01:11:53.458Z,4.70
2018-01-20T01:14:20.929Z,4.90
2018-01-20T01:16:48.411Z,9.03
2018-01-20T01:19:15.889Z,4.73
2018-01-20T01:21:43.350Z,5.47
2018-01-20T01:24:10.833Z,4.60
2018-01-20T01:26:38.329Z,6.17
2018-01-20T01:29:06.573Z,5.20
2018-01-20T01:31:34.035Z,5.43
2018-01-20T01:34:02.964Z,6.13
2018-01-20T01:36:31.197Z,4.70
2018-01-20T01:38:58.666Z,10.60
2018-01-20T01:41:26.373Z,5.10
2018-01-20T01:43:54.690Z,6.27
2018-01-20T01:46:22.321Z,14.93
2018-01-20T01:48:49.874Z,4.93
2018-01-20T01:51:17.343Z,8.00
2018-01-20T01:53:45.685Z,10.33
2018-01-20T01:56:13.927Z,5.60
2018-01-20T01:58:41.475Z,8.10
2018-01-20T02:01:08.966Z,14.27
2018-01-20T02:03:37.189Z,8.03
2018-01-20T02:06:04.690Z,7.60
2018-01-20T02:08:32.162Z,14.10
2018-01-20T02:10:59.679Z,6.50
2018-01-20T02:13:27.137Z,9.57
2018-01-20T02:15:54.859Z,7.40
2018-01-20T02:18:23.466Z,5.80
2018-01-20T02:20:50.955Z,8.27
2018-01-20T02:23:18.668Z,9.37
2018-01-20T02:25:46.899Z,16.33
2018-01-20T02:28:14.359Z,10.00
2018-01-20T02:30:41.822Z,6.33
2018-01-20T02:33:09.297Z,13.57
2018-01-20T02:35:36.761Z,11.87
2018-01-20T02:38:04.253Z,6.10
2018-01-20T02:40:31.734Z,6.77
2018-01-20T02:42:59.215Z,12.47
2018-01-20T02:45:27.515Z,7.03
2018-01-20T02:47:54.965Z,22.53
2018-01-20T02:50:22.431Z,9.63
2018-01-20T02:52:49.898Z,8.60
2018-01-20T02:55:18.481Z,7.67
2018-01-20T02:57:45.930Z,15.40
2018-01-20T03:00:14.965Z,9.40
2018-01-20T03:02:42.430Z,13.93
2018-01-20T03:05:09.910Z,9.80
2018-01-20T03:07:37.392Z,11.20
2018-01-20T03:10:04.874Z,11.03
2018-01-20T03:12:32.329Z,7.53
2018-01-20T03:15:00.570Z,8.80
2018-01-20T03:17:28.090Z,10.90
2018-01-20T03:19:55.568Z,13.07
2018-01-20T03:22:23.033Z,10.23
2018-01-20T03:24:50.513Z,15.80
2018-01-20T03:27:17.970Z,8.50
2018-01-20T03:29:45.435Z,9.77
2018-01-20T03:32:12.901Z,12.97
2018-01-20T03:34:40.349Z,8.03
2018-01-20T03:37:09.345Z,7.47
2018-01-20T03:39:36.882Z,9.93
2018-01-20T03:42:04.365Z,9.80
2018-01-20T03:44:31.844Z,10.13
2018-01-20T03:46:59.300Z,10.90
2018-01-20T03:49:26.790Z,9.80
2018-01-20T03:51:54.241Z,6.07
2018-01-20T03:54:22.470Z,6.13
2018-01-20T03:56:49.930Z,6.90
2018-01-20T03:59:18.173Z,8.53
2018-01-20T04:01:45.658Z,7.17
2018-01-20T04:04:13.143Z,13.60
2018-01-20T04:06:40.605Z,8.83
2018-01-20T04:09:08.083Z,4.50
2018-01-20T04:11:35.575Z,7.63
2018-01-20T04:14:03.050Z,5.70
2018-01-20T04:16:30.505Z,8.00
2018-01-20T04:18:57.978Z,10.60
2018-01-20T04:21:25.449Z,10.27
2018-01-20T04:23:53.090Z,6.87
2018-01-20T04:26:20.566Z,5.10
2018-01-20T04:28:48.051Z,5.20
2018-01-20T04:31:15.514Z,4.93
2018-01-20T04:33:42.982Z,5.87
2018-01-20T04:36:10.447Z,4.97
2018-01-20T04:38:37.916Z,17.83
2018-01-20T04:41:05.473Z,5.03
2018-01-20T04:43:32.969Z,11.03
2018-01-20T04:46:00.439Z,8.60
2018-01-20T04:48:27.897Z,7.80
2018-01-20T04:50:56.155Z,6.43
2018-01-20T04:53:23.621Z,9.17
2018-01-20T04:55:51.090Z,7.13
2018-01-20T04:58:18.562Z,9.73
2018-01-20T05:00:46.072Z,6.83
2018-01-20T05:03:13.609Z,8.40
2018-01-20T05:05:41.073Z,7.07
2018-01-20T05:08:08.551Z,10.20
2018-01-20T05:10:36.018Z,9.13
2018-01-20T05:13:03.501Z,7.50
2018-01-20T05:15:30.949Z,6.23
2018-01-20T05:17:58.429Z,12.73
2018-01-20T05:20:26.645Z,8.20
2018-01-20T05:22:54.107Z,5.77
2018-01-20T05:25:21.569Z,10.07
2018-01-20T05:27:49.453Z,7.90
2018-01-20T05:30:16.930Z,9.77
2018-01-20T05:32:44.393Z,5.27
2018-01-20T05:35:11.903Z,10.17
2018-01-20T05:37:39.386Z,13.40
2018-01-20T05:40:06.841Z,7.73
2018-01-20T05:42:34.306Z,12.37
2018-01-20T05:45:01.791Z,10.73
2018-01-20T05:47:29.247Z,9.90
2018-01-20T05:49:56.714Z,7.57
2018-01-20T05:52:24.937Z,14.30
2018-01-20T05:54:52.402Z,6.03
2018-01-20T05:57:19.868Z,5.57
2018-01-20T05:59:47.342Z,7.90
2018-01-20T06:02:14.815Z,9.37
2018-01-20T06:04:42.282Z,10.73
2018-01-20T06:07:09.781Z,5.47
2018-01-20T06:09:37.258Z,6.10
2018-01-20T06:12:04.725Z,9.70
2018-01-20T06:14:32.206Z,11.23
2018-01-20T06:17:00.452Z,13.60
2018-01-20T06:19:27.911Z,13.57
2018-01-20T06:21:55.377Z,15.60
2018-01-20T06:24:22.853Z,8.87
2018-01-20T06:26:50.315Z,6.20
2018-01-20T06:29:17.845Z,7.57
2018-01-20T06:31:45.322Z,11.80
2018-01-20T06:34:12.830Z,11.87
2018-01-20T06:36:40.290Z,7.33
2018-01-20T06:39:07.751Z,6.90
2018-01-20T06:41:35.805Z,22.27
2018-01-20T06:44:04.024Z,12.83
2018-01-20T06:46:31.507Z,10.13
2018-01-20T06:48:58.982Z,6.70
2018-01-20T06:51:27.234Z,10.20
2018-01-20T06:53:54.750Z,9.03
2018-01-20T06:56:22.240Z,19.13
2018-01-20T06:58:49.702Z,8.53
2018-01-20T07:01:17.180Z,17.63
2018-01-20T07:03:44.665Z,6.60
2018-01-20T07:06:12.879Z,10.17
2018-01-20T07:08:40.359Z,19.80
2018-01-20T07:11:07.866Z,16.17
2018-01-20T07:13:35.358Z,7.30
2018-01-20T07:16:02.819Z,6.03
2018-01-20T07:18:30.293Z,18.23
2018-01-20T07:20:57.790Z,11.47
2018-01-20T07:23:26.096Z,5.10
2018-01-20T07:25:53.570Z,11.17
2018-01-20T07:28:21.105Z,9.43
2018-01-20T07:30:48.614Z,14.07
2018-01-20T07:33:16.333Z,9.40
2018-01-20T07:35:43.891Z,8.00
2018-01-20T07:38:11.381Z,5.50
2018-01-20T07:40:39.025Z,9.30
2018-01-20T07:43:06.567Z,5.50
2018-01-20T07:45:34.062Z,7.63
2018-01-20T07:48:01.564Z,17.77
2018-01-20T07:50:29.802Z,8.67
2018-01-20T07:52:57.302Z,6.73
2018-01-20T07:55:25.562Z,12.90
2018-01-20T07:57:53.047Z,12.07
2018-01-20T08:00:21.319Z,8.23
2018-01-20T08:02:50.088Z,7.53
2018-01-20T08:05:18.240Z,6.63
2018-01-20T08:07:47.345Z,6.50
2018-01-20T08:10:15.372Z,4.03
2018-01-20T08:12:43.361Z,4.30
2018-01-20T08:15:11.151Z,8.03
2018-01-20T08:17:38.753Z,8.70
2018-01-20T08:20:08.357Z,3.80
2018-01-20T08:22:35.898Z,15.03
2018-01-20T08:25:03.371Z,3.30
2018-01-20T08:27:31.620Z,7.90
2018-01-20T08:29:59.097Z,4.43
2018-01-20T08:32:27.376Z,3.33
2018-01-20T08:34:55.601Z,3.20
2018-01-20T08:37:23.053Z,2.70
2018-01-20T08:39:50.618Z,8.73
2018-01-20T08:42:18.199Z,3.80
2018-01-20T08:44:45.674Z,4.27
2018-01-20T08:47:13.138Z,4.20
2018-01-20T08:49:41.393Z,6.20
2018-01-20T08:52:08.854Z,3.07
2018-01-20T08:54:36.534Z,5.17
2018-01-20T08:57:04.783Z,4.07
2018-01-20T08:59:32.251Z,5.70
2018-01-20T09:01:59.731Z,6.30
2018-01-20T09:04:27.262Z,5.40
2018-01-20T09:06:54.976Z,4.10
2018-01-20T09:09:23.210Z,4.57
2018-01-20T09:11:50.661Z,10.50
2018-01-20T09:14:18.144Z,8.00
2018-01-20T09:16:45.593Z,5.40
2018-01-20T09:19:13.842Z,3.00
2018-01-20T09:21:41.282Z,5.50
2018-01-20T09:24:09.078Z,2.80
2018-01-20T09:26:38.074Z,2.87
2018-01-20T09:29:05.637Z,5.23
2018-01-20T09:31:33.151Z,3.87
2018-01-20T09:34:00.646Z,3.47
2018-01-20T09:36:28.114Z,4.17
2018-01-20T09:38:55.567Z,4.43
2018-01-20T09:41:23.033Z,4.77
2018-01-20T09:43:50.480Z,5.27
2018-01-20T09:46:17.976Z,7.50
2018-01-20T09:48:46.202Z,5.70
2018-01-20T09:51:16.144Z,6.40
2018-01-20T09:53:44.599Z,4.87
2018-01-20T09:56:12.063Z,6.83
2018-01-20T09:58:39.530Z,12.87
2018-01-20T10:01:06.999Z,4.37
2018-01-20T10:03:34.459Z,6.97
2018-01-20T10:06:01.932Z,5.33
2018-01-20T10:08:29.422Z,8.50
2018-01-20T10:10:56.931Z,5.70
2018-01-20T10:13:26.431Z,9.83
2018-01-20T10:15:53.882Z,5.13
2018-01-20T10:18:21.369Z,5.17
2018-01-20T10:20:49.645Z,5.40
2018-01-20T10:23:17.890Z,5.10
2018-01-20T10:25:45.423Z,9.27
2018-01-20T10:28:12.910Z,5.43
2018-01-20T10:30:40.384Z,5.20
2018-01-20T10:33:08.294Z,8.17
2018-01-20T10:35:36.628Z,6.40
2018-01-20T10:38:04.116Z,4.37
2018-01-20T10:40:33.230Z,8.50
2018-01-20T10:43:03.607Z,4.10
2018-01-20T10:45:32.177Z,4.17
2018-01-20T10:48:02.030Z,5.07
2018-01-20T10:50:31.132Z,3.90
2018-01-20T10:52:59.513Z,2.37
2018-01-20T10:55:27.809Z,2.40
2018-01-20T10:57:56.046Z,3.10
2018-01-20T11:00:25.203Z,3.30
2018-01-20T11:02:52.727Z,2.83
2018-01-20T11:05:20.946Z,2.80
2018-01-20T11:07:48.761Z,2.20
2018-01-20T11:10:17.008Z,2.33
2018-01-20T11:12:44.492Z,3.03
2018-01-20T11:15:18.951Z,3.00
2018-01-20T11:17:55.530Z,3.20
2018-01-20T11:20:24.163Z,2.07
2018-01-20T11:22:51.691Z,2.20
2018-01-20T11:25:19.147Z,2.43
2018-01-20T11:27:46.812Z,2.60
2018-01-20T11:30:14.512Z,2.33
2018-01-20T11:32:44.961Z,3.10
2018-01-20T11:35:13.206Z,4.77
2018-01-20T11:37:44.115Z,3.03
2018-01-20T11:40:11.601Z,3.83
2018-01-20T11:42:39.634Z,4.93
2018-01-20T11:45:07.252Z,2.77
2018-01-20T11:47:35.578Z,4.80
2018-01-20T11:50:03.069Z,2.90
2018-01-20T11:52:30.741Z,2.43
2018-01-20T11:54:58.369Z,2.40
2018-01-20T11:57:25.890Z,3.13
2018-01-20T11:59:53.398Z,3.10
2018-01-20T12:02:21.028Z,6.53
2018-01-20T12:04:48.533Z,2.60
2018-01-20T12:07:16.048Z,24.33
2018-01-20T12:09:43.490Z,4.50
2018-01-20T12:12:11.392Z,4.23
2018-01-20T12:14:39.100Z,2.00
2018-01-20T12:17:06.591Z,4.00
2018-01-20T12:19:34.075Z,2.73
2018-01-20T12:22:01.564Z,1.87
2018-01-20T12:24:29.034Z,2.60
2018-01-20T12:26:56.563Z,2.23
2018-01-20T12:29:25.186Z,2.30
2018-01-20T12:31:52.674Z,2.80
2018-01-20T12:34:20.155Z,10.93
2018-01-20T12:36:47.658Z,9.07
2018-01-20T12:39:15.148Z,4.37
2018-01-20T12:41:43.563Z,5.20
2018-01-20T12:44:11.110Z,4.40
2018-01-20T12:46:38.589Z,12.73
2018-01-20T12:49:06.055Z,5.57
2018-01-20T12:51:33.546Z,3.83
2018-01-20T12:54:01.035Z,5.83
2018-01-20T12:56:28.501Z,3.73
2018-01-20T12:58:55.995Z,2.50
2018-01-20T13:01:23.452Z,3.10
2018-01-20T13:03:51.020Z,4.30
2018-01-20T13:06:18.556Z,2.50
2018-01-20T13:08:46.118Z,3.70
2018-01-20T13:11:13.709Z,3.03
2018-01-20T13:13:41.179Z,3.43
2018-01-20T13:16:09.429Z,2.77
2018-01-20T13:18:36.929Z,2.07
2018-01-20T13:21:04.409Z,2.30
2018-01-20T13:23:31.870Z,2.30
2018-01-20T13:25:59.382Z,2.33
2018-01-20T13:28:26.840Z,2.60
2018-01-20T13:30:54.308Z,3.00
2018-01-20T13:33:22.535Z,2.77
2018-01-20T13:35:50.003Z,3.37
2018-01-20T13:38:17.479Z,3.13
2018-01-20T13:40:44.941Z,3.17
2018-01-20T13:43:12.415Z,3.13
2018-01-20T13:45:39.879Z,2.93
2018-01-20T13:48:08.111Z,4.00
2018-01-20T13:50:35.583Z,3.50
2018-01-20T13:53:03.067Z,2.67
2018-01-20T13:55:31.336Z,3.90
2018-01-20T13:57:58.794Z,3.47
2018-01-20T14:00:26.242Z,4.53
2018-01-20T14:02:53.726Z,3.23
2018-01-20T14:05:21.964Z,3.80
2018-01-20T14:07:49.935Z,3.67
2018-01-20T14:10:17.434Z,4.13
2018-01-20T14:12:45.686Z,5.27
2018-01-20T14:15:13.152Z,4.00
2018-01-20T14:17:40.633Z,3.80
2018-01-20T14:20:08.931Z,3.50
2018-01-20T14:22:36.412Z,2.90
2018-01-20T14:25:03.896Z,3.30
2018-01-20T14:27:31.529Z,4.30
2018-01-20T14:29:59.018Z,5.80
2018-01-20T14:32:26.499Z,3.70
2018-01-20T14:34:53.958Z,4.00
2018-01-20T14:37:22.202Z,3.03
2018-01-20T14:39:49.661Z,3.67
2018-01-20T14:42:17.131Z,2.77
2018-01-20T14:44:44.592Z,3.43
2018-01-20T14:47:12.150Z,3.87
2018-01-20T14:49:39.608Z,3.90
2018-01-20T14:52:07.949Z,3.67
2018-01-20T14:54:35.415Z,2.67
2018-01-20T14:57:03.979Z,6.87
2018-01-20T14:59:31.437Z,3.80
2018-01-20T15:01:58.898Z,3.10
2018-01-20T15:04:26.366Z,9.03
2018-01-20T15:06:53.852Z,4.57
2018-01-20T15:09:21.320Z,4.40
2018-01-20T15:11:48.780Z,4.13
2018-01-20T15:14:16.272Z,4.90
2018-01-20T15:16:43.752Z,4.97
2018-01-20T15:19:11.209Z,4.97
2018-01-20T15:21:38.682Z,6.43
2018-01-20T15:24:06.139Z,6.20
2018-01-20T15:26:33.626Z,4.90
2018-01-20T15:29:01.895Z,5.60
2018-01-20T15:31:29.359Z,6.13
2018-01-20T15:33:56.831Z,5.90
2018-01-20T15:36:25.063Z,6.13
2018-01-20T15:38:52.535Z,12.50
2018-01-20T15:41:20.010Z,6.60
2018-01-20T15:43:48.253Z,6.60
2018-01-20T15:46:15.725Z,6.17
2018-01-20T15:48:43.380Z,6.77
2018-01-20T15:51:10.857Z,6.40
2018-01-20T15:53:38.314Z,7.07
2018-01-20T15:56:05.787Z,7.47
2018-01-20T15:58:33.324Z,9.20
2018-01-20T16:01:00.778Z,11.27
2018-01-20T16:03:28.255Z,9.43
2018-01-20T16:05:55.797Z,13.63
2018-01-20T16:08:23.260Z,13.50
2018-01-20T16:10:50.747Z,9.87
2018-01-20T16:13:19.026Z,11.07
2018-01-20T16:15:47.294Z,11.47
2018-01-20T16:18:14.747Z,10.77
2018-01-20T16:20:42.826Z,10.60
2018-01-20T16:23:10.285Z,15.60
2018-01-20T16:25:38.518Z,13.87
2018-01-20T16:28:05.978Z,15.37
2018-01-20T16:30:33.457Z,14.20
2018-01-20T16:33:01.021Z,16.07
2018-01-20T16:35:28.493Z,14.23
2018-01-20T16:37:55.962Z,17.17
2018-01-20T16:40:24.474Z,22.07
2018-01-20T16:42:52.005Z,15.70
2018-01-20T16:45:20.235Z,15.23
2018-01-20T16:47:47.719Z,16.97
2018-01-20T16:50:15.184Z,20.80
2018-01-20T16:52:42.683Z,16.53
2018-01-20T16:55:10.146Z,17.10
2018-01-20T16:57:37.641Z,16.73
2018-01-20T17:00:05.112Z,12.87
2018-01-20T17:02:32.586Z,15.33
2018-01-20T17:05:00.067Z,17.87
2018-01-20T17:07:27.570Z,17.77
2018-01-20T17:09:55.031Z,26.93
2018-01-20T17:12:22.560Z,21.40
2018-01-20T17:14:50.058Z,25.07
2018-01-20T17:17:17.544Z,20.87
2018-01-20T17:19:45.803Z,33.33
2018-01-20T17:22:13.322Z,18.80
2018-01-20T17:24:41.414Z,26.00
2018-01-20T17:27:08.875Z,23.57
2018-01-20T17:29:36.369Z,22.33
2018-01-20T17:32:04.606Z,31.33
2018-01-20T17:34:35.144Z,26.50
2018-01-20T17:37:02.661Z,29.40
2018-01-20T17:39:30.148Z,24.33
2018-01-20T17:41:57.618Z,30.33
2018-01-20T17:44:25.100Z,23.40
2018-01-20T17:46:52.786Z,20.40
2018-01-20T17:49:21.020Z,20.90
2018-01-20T17:51:48.592Z,26.77
2018-01-20T17:54:17.570Z,26.53
2018-01-20T17:56:45.055Z,26.83
2018-01-20T17:59:12.513Z,24.70
2018-01-20T18:01:40.804Z,28.77
2018-01-20T18:04:09.042Z,20.13
2018-01-20T18:06:36.876Z,21.20
2018-01-20T18:09:04.343Z,24.30
2018-01-20T18:11:31.834Z,31.07
2018-01-20T18:13:59.318Z,30.10
2018-01-20T18:16:26.790Z,38.50
2018-01-20T18:18:55.016Z,35.40
2018-01-20T18:21:22.575Z,31.00
2018-01-20T18:23:50.052Z,30.77
2018-01-20T18:26:17.610Z,36.13
2018-01-20T18:28:45.082Z,38.63
2018-01-20T18:31:12.561Z,42.80
2018-01-20T18:33:40.807Z,35.73
2018-01-20T18:36:08.830Z,43.67
2018-01-20T18:38:36.390Z,40.33
2018-01-20T18:41:04.623Z,34.23
2018-01-20T18:43:32.092Z,41.17
2018-01-20T18:46:00.336Z,37.37
2018-01-20T18:48:27.811Z,36.13
2018-01-20T18:50:56.054Z,44.10
2018-01-20T18:53:23.527Z,40.13
2018-01-20T18:55:51.020Z,39.07
2018-01-20T18:58:19.262Z,36.97
2018-01-20T19:00:46.729Z,38.93
2018-01-20T19:03:14.230Z,28.33
2018-01-20T19:05:42.473Z,39.33
2018-01-20T19:08:09.923Z,48.03
2018-01-20T19:10:37.430Z,43.30
2018-01-20T19:13:04.910Z,67.67
2018-01-20T19:15:33.910Z,51.50
2018-01-20T19:18:01.451Z,46.37
2018-01-20T19:20:28.933Z,55.20
2018-01-20T19:22:56.433Z,64.23
2018-01-20T19:25:24.510Z,62.80
2018-01-20T19:27:52.762Z,57.53
2018-01-20T19:30:20.235Z,60.10
2018-01-20T19:32:47.710Z,56.33
2018-01-20T19:35:15.191Z,57.90
2018-01-20T19:37:42.710Z,61.70
2018-01-20T19:40:10.171Z,65.10
2018-01-20T19:42:37.676Z,71.70
2018-01-20T19:45:05.155Z,64.33
2018-01-20T19:47:32.633Z,62.97
2018-01-20T19:50:00.129Z,58.43
2018-01-20T19:52:28.476Z,59.60
2018-01-20T19:54:56.042Z,40.33
2018-01-20T19:57:23.510Z,49.70
2018-01-20T19:59:51.776Z,50.03
2018-01-20T20:02:20.019Z,47.13
2018-01-20T20:04:47.505Z,55.20
2018-01-20T20:07:15.099Z,42.47
2018-01-20T20:09:42.640Z,48.23
2018-01-20T20:12:10.880Z,48.60
2018-01-20T20:14:39.397Z,69.20
2018-01-20T20:17:06.914Z,60.30
2018-01-20T20:19:34.482Z,47.90
2018-01-20T20:22:02.008Z,53.47
2018-01-20T20:24:29.491Z,56.60
2018-01-20T20:26:56.987Z,48.93
2018-01-20T20:29:24.469Z,54.73
2018-01-20T20:31:52.701Z,56.30
2018-01-20T20:34:20.184Z,64.13
2018-01-20T20:36:47.725Z,67.53
2018-01-20T20:39:15.209Z,64.13
2018-01-20T20:41:42.703Z,64.77
2018-01-20T20:44:10.179Z,72.30
2018-01-20T20:46:37.731Z,76.97
2018-01-20T20:49:05.212Z,85.23
2018-01-20T20:51:32.692Z,78.87
2018-01-20T20:54:00.178Z,81.40
2018-01-20T20:56:28.472Z,74.40
2018-01-20T20:58:55.940Z,88.33
2018-01-20T21:01:23.445Z,89.93
2018-01-20T21:03:52.903Z,90.70
2018-01-20T21:06:20.391Z,94.80
2018-01-20T21:08:47.860Z,81.87
2018-01-20T21:11:15.347Z,83.13
2018-01-20T21:13:43.628Z,94.30
2018-01-20T21:16:11.866Z,87.70
2018-01-20T21:18:39.351Z,73.77
2018-01-20T21:21:07.598Z,89.87
2018-01-20T21:23:35.079Z,97.57
2018-01-20T21:26:02.591Z,90.13
2018-01-20T21:28:30.071Z,102.87
2018-01-20T21:30:57.528Z,86.03
2018-01-20T21:33:25.002Z,85.33
2018-01-20T21:35:52.470Z,99.40
2018-01-20T21:38:19.976Z,92.97
2018-01-20T21:40:47.451Z,89.30
2018-01-20T21:43:14.947Z,94.30
2018-01-20T21:45:42.413Z,92.47
2018-01-20T21:48:10.654Z,91.30
2018-01-20T21:50:38.130Z,90.57
2018-01-20T21:53:05.601Z,96.33
2018-01-20T21:55:33.119Z,89.70
2018-01-20T21:58:00.577Z,83.13
2018-01-20T22:00:28.112Z,76.30
2018-01-20T22:02:56.290Z,78.93
2018-01-20T22:05:24.051Z,81.67
2018-01-20T22:07:51.557Z,77.73
2018-01-20T22:10:19.770Z,79.17
2018-01-20T22:12:48.058Z,72.40
2018-01-20T22:15:15.852Z,64.90
2018-01-20T22:17:43.455Z,62.70
2018-01-20T22:20:11.696Z,61.10
2018-01-20T22:22:39.166Z,62.37
2018-01-20T22:25:06.643Z,81.60
2018-01-20T22:27:34.106Z,59.23
2018-01-20T22:30:01.673Z,78.87
2018-01-20T22:32:29.215Z,78.73
2018-01-20T22:34:56.765Z,85.00
2018-01-20T22:37:24.257Z,71.57
2018-01-20T22:39:52.510Z,74.50
2018-01-20T22:42:20.788Z,81.37
2018-01-20T22:44:49.033Z,94.40
2018-01-20T22:47:16.609Z,89.57
2018-01-20T22:49:44.078Z,77.77
2018-01-20T22:52:11.549Z,76.77
2018-01-20T22:54:39.081Z,87.40
2018-01-20T22:57:07.469Z,77.47
2018-01-20T22:59:34.939Z,84.80
2018-01-20T23:02:03.170Z,71.40
2018-01-20T23:04:30.646Z,74.33
2018-01-20T23:06:58.122Z,74.57
2018-01-20T23:09:25.611Z,68.83
2018-01-20T23:11:53.952Z,73.67
2018-01-20T23:14:21.457Z,71.07
2018-01-20T23:16:49.723Z,73.90
2018-01-20T23:19:17.176Z,64.60
2018-01-20T23:21:44.670Z,70.23
2018-01-20T23:24:12.181Z,69.37
2018-01-20T23:26:39.679Z,65.13
2018-01-20T23:29:07.138Z,92.03
2018-01-20T23:31:34.638Z,75.53
2018-01-20T23:34:02.128Z,83.03
2018-01-20T23:36:29.610Z,73.60
2018-01-20T23:38:57.094Z,97.23
2018-01-20T23:41:24.589Z,102.37
2018-01-20T23:43:52.076Z,91.27
2018-01-20T23:46:20.302Z,87.93
2018-01-20T23:48:47.782Z,93.53
2018-01-20T23:51:15.258Z,112.73
2018-01-20T23:53:42.727Z,130.03
2018-01-20T23:56:10.982Z,139.20
2018-01-20T23:58:38.461Z,160.43
